x

South Georgian Bay (45143) Wave Buoy

4:00pm - Thu 21st Sep 2017 All times are CDT. -5 hours from GMT.

  • Sig Wave height 0.7ft
  • Peak Period 3s
  • Wind
    9mph, 9mph gusts
  • Sea Temp 68°f
  • Air Temp 71°f
  • Sea Pressure 1018.6mb
  • South Georgian Bay
  • South Georgian Bay

More Historic Weather Station data

Upgrade to MSW Pro to gain access to the past 30 days of data for over 8000 Wavebouys and Weather Stations around the globe.

Join

Comparision Forecast

View Surf forecast
   
Thu 09/21 4:00pm 0.7ft 3s 9 9 mph 1018.6mb 68f 71f
3:00pm 0.7ft 3s 9 11 mph 1018.7mb 68f 70f
2:00pm 0.7ft 3s 9 9 mph 1018.8mb 68f 71f
11:00am 1.3ft 3s 9 11 mph 1018.8mb 67f 68f
10:00am 1ft 3s 7 9 mph 1018.9mb 67f 67f
9:00am 1ft 3s 11 13 mph 1018.9mb 66f 67f
8:00am 1ft 3s 11 13 mph 1018.6mb 66f 68f
7:00am 0.7ft 2s 13 16 mph 1018.4mb 66f 67f
6:00am 0.7ft 2s 9 11 mph 1018.7mb 66f 67f
5:00am 0.3ft 2s 9 9 mph 1018.9mb 66f 67f
4:00am 0.7ft 2s 9 9 mph 1018.4mb 66f 68f
3:00am 0.7ft 2s 9 9 mph 1018.2mb 66f 68f
2:00am 0.7ft 2s 7 7 mph 1018mb 66f 67f
1:00am 0.7ft 2s 4 7 mph 1018.2mb 66f 67f
12:00am 0.7ft 2s 4 4 mph 1018mb 66f 68f
Wed 09/20 11:00pm 0.7ft 2s 11 13 mph 1016.8mb 66f 70f
10:00pm 0.7ft 2s 9 11 mph 1016.3mb 67f 69f
9:00pm 0.3ft 2s 11 13 mph 1016mb 67f 69f
8:00pm 0.3ft 2s 9 11 mph 1016.1mb 67f 69f
7:00pm 0.3ft 2s 9 9 mph 1016.1mb 67f 69f
6:00pm 0.3ft 2s 7 9 mph 1015.9mb 67f 70f
5:00pm 0.3ft 2s 9 9 mph 1015.8mb 67f 70f
4:00pm 0.7ft 2s 9 9 mph 1016mb 68f 69f
3:00pm 0.7ft 3s 4 4 mph 1016.1mb 67f 68f
2:00pm 0.7ft 3s 4 4 mph 1016.5mb 67f 68f
1:00pm 1ft 3s 9 9 mph 1016.3mb 67f 67f
12:00pm 1.3ft 3s 9 9 mph 1016.7mb 67f 67f
11:00am 1.3ft 3s 9 11 mph 1017.4mb 66f 67f
10:00am 1.6ft 3s 11 13 mph 1017.9mb 66f 66f
9:00am 1.3ft 3s 13 16 mph 1017.9mb 66f 66f
8:00am 1.3ft 3s 11 13 mph 1017.7mb 66f 66f
7:00am 1.3ft 3s 11 13 mph 1017.3mb 66f 67f
6:00am 1.3ft 3s 11 13 mph 1016.8mb 66f 67f
5:00am 1ft 3s 11 13 mph 1016.5mb 66f 67f
4:00am 1ft 2s 16 18 mph 1015.6mb 66f 67f
3:00am 0.7ft 2s 11 13 mph 1015.8mb 66f 67f
2:00am 0.7ft 2s 11 13 mph 1015.7mb 66f 67f
1:00am 0.3ft 2s 9 9 mph 1016.1mb 66f 67f
12:00am 0.3ft 2s 9 11 mph 1016.1mb 66f 67f
Tue 09/19 11:00pm 0.3ft 12s 9 9 mph 1016.1mb 66f 67f
10:00pm 0.3ft 12s 4 7 mph 1016.4mb 66f 67f
9:00pm 0.3ft 12s 4 4 mph 1016.8mb 66f 67f
8:00pm 0.3ft 2s 2 2 mph 1016.9mb 66f 67f
7:00pm 0.3ft 2s 4 4 mph 1016.7mb 66f 67f
6:00pm 0.7ft 2s 7 7 mph 1016.2mb 66f 67f
5:00pm 0.7ft 3s 9 9 mph 1016.3mb 66f 66f
4:00pm 0.7ft 4s 7 9 mph 1016.4mb 66f 67f
3:00pm 1ft 4s 4 7 mph 1016.4mb 67f 67f
2:00pm 1ft 3s 4 4 mph 1016.7mb 67f 67f
1:00pm 1.3ft 3s 4 7 mph 1016.9mb 66f 67f
12:00pm 1.3ft 3s 9 11 mph 1017.6mb 66f 66f
11:00am 1.3ft 3s 9 11 mph 1017.6mb 66f 66f
10:00am 1.3ft 3s 11 11 mph 1017.8mb 66f 64f
9:00am 1.3ft 3s 11 13 mph 1017.9mb 65f 63f
8:00am 1ft 3s 9 11 mph 1017.9mb 65f 64f
7:00am 1.3ft 3s 9 11 mph 1018mb 65f 62f
6:00am 1ft 3s 11 13 mph 1017.9mb 65f 63f
5:00am 1ft 2s 11 11 mph 1017.5mb 65f 63f
4:00am 0.7ft 2s 9 11 mph 1017.5mb 65f 64f
3:00am 0.7ft 3s 9 9 mph 1017.6mb 65f 64f
2:00am 0.7ft 3s 7 9 mph 1017.5mb 65f 64f
1:00am 0.7ft 3s 7 9 mph 1017.7mb 65f 65f
12:00am 0.7ft 3s 4 4 mph 1018.2mb 66f 65f
Mon 09/18 11:00pm 0.7ft 3s 7 7 mph 1017.8mb 66f 65f
10:00pm 0.7ft 3s 7 7 mph 1018.4mb 66f 65f
9:00pm 1ft 3s 9 11 mph 1017.9mb 66f 65f
8:00pm 0.7ft 3s 4 7 mph 1018.4mb 67f 65f
7:00pm 0.7ft 3s 4 7 mph 1018.4mb 67f 65f
6:00pm 0.7ft 3s 7 7 mph 1017.9mb 67f 65f
5:00pm 1ft 3s 9 11 mph 1017.9mb 67f 65f
4:00pm 1ft 3s 11 13 mph 1017.8mb 67f 65f
3:00pm 1ft 3s 13 13 mph 1017.8mb 67f 65f
2:00pm 0.7ft 2s 11 13 mph 1018.1mb 67f 65f
1:00pm 0.7ft 2s 9 11 mph 1018.1mb 67f 65f
12:00pm 0.7ft 2s 9 11 mph 1018.1mb 67f 65f
11:00am 0.3ft 2s 11 13 mph 1018.1mb 67f 65f
10:00am 0.3ft 12s 7 9 mph 1018mb 67f 66f
9:00am 0.3ft 12s 7 7 mph 1017.7mb 67f 66f
8:00am 0.7ft 2s 9 11 mph 1018.1mb 67f 66f
7:00am 0.7ft 3s 9 9 mph 1017.8mb 67f 66f
6:00am 0.7ft 3s 7 7 mph 1017.4mb 67f 65f
5:00am 0.7ft 3s 7 7 mph 1017.3mb 67f 67f
4:00am 0.3ft 2s 2 4 mph 1017.1mb 67f 67f
3:00am 0.3ft 2s 4 4 mph 1016.8mb 67f 67f
2:00am 0.7ft 2s 7 7 mph 1016.9mb 67f 68f
1:00am 0.3ft 15s 9 11 mph 1016.8mb 67f 69f
12:00am 0.3ft 15s 9 9 mph 1016.8mb 67f 69f